VOML/IXE METAR and TAF weather

Enter ICAO airport designator
Station Type Date Time Source
VOML METAR 2020/04/03 07:00 UTC NOAA

VOML 030700Z 26010KT 6000 SCT015 34/24 Q1010 NOSIG


Station Type Date Time Source
VOML Decoded METAR 2020/04/03 07:00 UTC NOAA

Mangalore / Bajpe, India (VOML) 12-55N 074-53E 102M
Apr 03, 2020 - 03:00 AM EDT / 2020.04.03 0700 UTC
Wind: from the W (260 degrees) at 12 MPH (10 KT):0
Visibility: 3 mile(s):0
Sky conditions: partly cloudy
Temperature: 93 F (34 C)
Heat index: 104.5 F (40.3 C):1
Dew Point: 75 F (24 C)
Relative Humidity: 56%
Pressure (altimeter): 29.83 in. Hg (1010 hPa)
ob: VOML 030700Z 26010KT 6000 SCT015 34/24 Q1010 NOSIG
cycle: 7

Station Type Date Time Source
VOML TAF 2020/04/03 06:00 UTC NOAA

TAF VOML 030500Z 0306/0412 27010KT 6000 SCT012
BECMG 0320/0321 09005KT
TEMPO 0400/0403 4000 BR FEW015
BECMG 0407/0408 27010KT

Example: see airport list